createdAt,value
2023-07-07T00:00:31.374Z,14.37
2023-07-07T00:03:19.085Z,14.30
2023-07-07T00:05:46.924Z,14.25
2023-07-07T00:08:15.063Z,14.19
2023-07-07T00:10:44.086Z,14.12
2023-07-07T00:13:12.928Z,14.06
2023-07-07T00:15:45.429Z,14.04
2023-07-07T00:18:15.501Z,14.03
2023-07-07T00:20:43.364Z,14.04
2023-07-07T00:23:13.588Z,14.03
2023-07-07T00:25:41.522Z,14.01
2023-07-07T00:28:09.146Z,13.99
2023-07-07T00:30:36.803Z,13.97
2023-07-07T00:33:04.618Z,13.94
2023-07-07T00:35:32.636Z,13.90
2023-07-07T00:38:00.268Z,13.86
2023-07-07T00:40:28.227Z,13.80
2023-07-07T00:42:56.162Z,13.78
2023-07-07T00:45:23.763Z,13.78
2023-07-07T00:47:58.035Z,13.79
2023-07-07T00:50:28.064Z,13.79
2023-07-07T00:52:55.716Z,13.76
2023-07-07T00:55:39.741Z,13.70
2023-07-07T00:58:09.874Z,13.63
2023-07-07T01:00:38.564Z,13.56
2023-07-07T01:03:12.099Z,13.48
2023-07-07T01:05:40.000Z,13.40
2023-07-07T01:08:08.820Z,13.35
2023-07-07T01:10:41.345Z,13.34
2023-07-07T01:13:09.898Z,13.33
2023-07-07T01:15:44.410Z,13.31
2023-07-07T01:18:30.422Z,13.30
2023-07-07T01:21:13.754Z,13.29
2023-07-07T01:23:59.689Z,13.27
2023-07-07T01:26:33.826Z,13.24
2023-07-07T01:29:16.138Z,13.20
2023-07-07T01:31:47.212Z,13.19
2023-07-07T01:34:15.655Z,13.20
2023-07-07T01:36:43.637Z,13.21
2023-07-07T01:39:12.646Z,13.21
2023-07-07T01:41:55.999Z,13.20
2023-07-07T01:44:43.082Z,13.19
2023-07-07T01:47:13.236Z,13.15
2023-07-07T01:50:03.612Z,13.12
2023-07-07T01:52:37.809Z,13.08
2023-07-07T01:55:12.736Z,13.02
2023-07-07T01:57:40.829Z,13.00
2023-07-07T02:00:08.980Z,12.99
2023-07-07T02:02:36.708Z,13.00
2023-07-07T02:05:04.945Z,12.99
2023-07-07T02:07:32.685Z,12.97
2023-07-07T02:10:00.386Z,12.96
2023-07-07T02:12:28.196Z,12.93
2023-07-07T02:14:55.861Z,12.89
2023-07-07T02:17:25.847Z,12.84
2023-07-07T02:19:53.926Z,12.76
2023-07-07T02:22:21.543Z,12.70
2023-07-07T02:24:49.198Z,12.67
2023-07-07T02:27:16.804Z,12.64
2023-07-07T02:29:44.435Z,12.59
2023-07-07T02:32:12.076Z,12.55
2023-07-07T02:34:41.373Z,12.52
2023-07-07T02:37:14.182Z,12.49
2023-07-07T02:39:44.066Z,12.46
2023-07-07T02:42:12.154Z,12.43
2023-07-07T02:44:39.962Z,12.41
2023-07-07T02:47:10.478Z,12.44
2023-07-07T02:49:38.214Z,12.47
2023-07-07T02:52:06.668Z,12.48
2023-07-07T02:54:34.429Z,12.48
2023-07-07T02:57:03.072Z,12.48
2023-07-07T02:59:30.929Z,12.47
2023-07-07T03:01:58.850Z,12.45
2023-07-07T03:04:28.234Z,12.42
2023-07-07T03:06:55.930Z,12.40
2023-07-07T03:09:23.699Z,12.41
2023-07-07T03:11:51.426Z,12.43
2023-07-07T03:14:19.527Z,12.44
2023-07-07T03:16:53.706Z,12.44
2023-07-07T03:19:23.891Z,12.43
2023-07-07T03:21:54.599Z,12.41
2023-07-07T03:24:22.297Z,12.39
2023-07-07T03:26:49.917Z,12.38
2023-07-07T03:29:17.719Z,12.39
2023-07-07T03:31:45.329Z,12.43
2023-07-07T03:34:13.002Z,12.49
2023-07-07T03:36:40.777Z,12.53
2023-07-07T03:39:08.795Z,12.57
2023-07-07T03:41:36.612Z,12.59
2023-07-07T03:44:04.670Z,12.60
2023-07-07T03:46:32.363Z,12.61
2023-07-07T03:49:00.347Z,12.63
2023-07-07T03:51:30.052Z,12.67
2023-07-07T03:53:57.888Z,12.74
2023-07-07T03:56:27.815Z,12.81
2023-07-07T03:58:55.633Z,12.86
2023-07-07T04:01:23.440Z,12.92
2023-07-07T04:03:51.273Z,12.95
2023-07-07T04:06:19.324Z,12.99
2023-07-07T04:08:47.074Z,13.02
2023-07-07T04:11:17.063Z,13.07
2023-07-07T04:13:48.212Z,13.16
2023-07-07T04:16:17.968Z,13.28
2023-07-07T04:18:45.938Z,13.36
2023-07-07T04:21:19.731Z,13.43
2023-07-07T04:23:48.690Z,13.51
2023-07-07T04:26:17.398Z,13.57
2023-07-07T04:28:45.114Z,13.62
2023-07-07T04:31:13.180Z,13.71
2023-07-07T04:33:41.441Z,13.82
2023-07-07T04:36:10.294Z,13.96
2023-07-07T04:38:38.007Z,14.09
2023-07-07T04:41:07.663Z,14.23
2023-07-07T04:43:35.818Z,14.36
2023-07-07T04:46:03.841Z,14.47
2023-07-07T04:48:32.256Z,14.58
2023-07-07T04:51:04.209Z,14.70
2023-07-07T04:53:35.282Z,14.84
2023-07-07T04:56:07.372Z,15.00
2023-07-07T04:58:35.273Z,15.15
2023-07-07T05:01:06.046Z,15.27
2023-07-07T05:03:34.971Z,15.38
2023-07-07T05:06:04.442Z,15.47
2023-07-07T05:08:36.790Z,15.56
2023-07-07T05:11:05.036Z,15.62
2023-07-07T05:13:33.233Z,15.68
2023-07-07T05:16:07.037Z,15.75
2023-07-07T05:18:34.746Z,15.84
2023-07-07T05:21:06.092Z,15.96
2023-07-07T05:23:35.756Z,16.07
2023-07-07T05:26:03.793Z,16.16
2023-07-07T05:28:31.635Z,16.23
2023-07-07T05:30:59.762Z,16.30
2023-07-07T05:33:28.998Z,16.36
2023-07-07T05:35:57.856Z,16.43
2023-07-07T05:38:26.130Z,16.48
2023-07-07T05:40:54.276Z,16.54
2023-07-07T05:43:22.839Z,16.61
2023-07-07T05:46:06.066Z,16.70
2023-07-07T05:48:33.781Z,16.85
2023-07-07T05:51:02.622Z,16.98
2023-07-07T05:53:30.639Z,17.11
2023-07-07T05:56:10.737Z,17.22
2023-07-07T05:58:42.428Z,17.33
2023-07-07T06:01:15.089Z,17.43
2023-07-07T06:03:44.456Z,17.53
2023-07-07T06:06:12.763Z,17.63
2023-07-07T06:08:41.361Z,17.73
2023-07-07T06:11:09.323Z,17.84
2023-07-07T06:13:37.290Z,17.97
2023-07-07T06:16:06.669Z,18.14
2023-07-07T06:18:34.452Z,18.35
2023-07-07T06:21:03.157Z,18.54
2023-07-07T06:23:31.996Z,18.71
2023-07-07T06:25:59.774Z,18.86
2023-07-07T06:28:27.988Z,18.98
2023-07-07T06:30:55.805Z,19.09
2023-07-07T06:33:23.739Z,19.18
2023-07-07T06:35:52.193Z,19.25
2023-07-07T06:38:20.003Z,19.31
2023-07-07T06:40:48.760Z,19.36
2023-07-07T06:43:20.206Z,19.40
2023-07-07T06:45:54.929Z,19.46
2023-07-07T06:48:22.764Z,19.49
2023-07-07T06:50:50.643Z,19.52
2023-07-07T06:53:18.338Z,19.55
2023-07-07T06:55:46.303Z,19.58
2023-07-07T06:58:14.407Z,19.60
2023-07-07T07:00:42.820Z,19.61
2023-07-07T07:03:10.857Z,19.64
2023-07-07T07:05:39.539Z,19.68
2023-07-07T07:08:07.254Z,19.72
2023-07-07T07:10:35.212Z,19.77
2023-07-07T07:13:02.949Z,19.81
2023-07-07T07:15:31.365Z,19.84
2023-07-07T07:17:59.402Z,19.89
2023-07-07T07:20:27.124Z,19.94
2023-07-07T07:22:54.809Z,19.99
2023-07-07T07:25:22.493Z,20.04
2023-07-07T07:27:50.293Z,20.10
2023-07-07T07:30:17.971Z,20.16
2023-07-07T07:32:45.697Z,20.22
2023-07-07T07:35:13.693Z,20.31
2023-07-07T07:37:41.472Z,20.40
2023-07-07T07:40:09.942Z,20.49
2023-07-07T07:42:37.629Z,20.57
2023-07-07T07:45:05.963Z,20.65
2023-07-07T07:47:35.129Z,20.75
2023-07-07T07:50:03.229Z,20.83
2023-07-07T07:52:30.867Z,20.91
2023-07-07T07:54:58.635Z,20.99
2023-07-07T07:57:26.245Z,21.10
2023-07-07T07:59:53.914Z,21.18
2023-07-07T08:02:21.752Z,21.26
2023-07-07T08:04:49.473Z,21.35
2023-07-07T08:07:17.378Z,21.44
2023-07-07T08:09:45.223Z,21.55
2023-07-07T08:12:12.842Z,21.66
2023-07-07T08:14:40.666Z,21.78
2023-07-07T08:17:09.887Z,21.93
2023-07-07T08:19:38.829Z,22.10
2023-07-07T08:22:12.340Z,22.27
2023-07-07T08:24:41.876Z,22.47
2023-07-07T08:29:40.271Z,22.82
2023-07-07T08:32:11.982Z,22.99
2023-07-07T08:34:53.800Z,23.15
2023-07-07T08:37:24.028Z,23.25
2023-07-07T08:39:51.765Z,23.28
2023-07-07T08:42:37.171Z,23.34
2023-07-07T08:45:16.071Z,23.38
2023-07-07T08:47:47.267Z,23.44
2023-07-07T08:50:31.229Z,23.46
2023-07-07T08:53:17.762Z,23.51
2023-07-07T08:55:48.248Z,23.55
2023-07-07T08:58:54.038Z,23.56
2023-07-07T09:01:36.823Z,23.54
2023-07-07T09:04:29.282Z,23.51
2023-07-07T09:07:09.271Z,23.48
2023-07-07T09:09:46.849Z,23.50
2023-07-07T09:12:44.218Z,23.61
2023-07-07T09:15:21.427Z,23.78
2023-07-07T09:17:55.814Z,23.92
2023-07-07T09:20:23.929Z,24.01
2023-07-07T09:23:03.904Z,24.09
2023-07-07T09:25:49.123Z,24.13
2023-07-07T09:28:18.048Z,24.14
2023-07-07T09:30:59.832Z,24.13
2023-07-07T09:33:27.753Z,24.09
2023-07-07T09:36:12.808Z,24.06
2023-07-07T09:38:56.016Z,24.02
2023-07-07T09:42:19.304Z,24.01
2023-07-07T09:45:44.552Z,23.97
2023-07-07T09:48:36.368Z,23.93
2023-07-07T09:51:19.739Z,23.93
2023-07-07T09:53:48.049Z,24.06
2023-07-07T09:56:22.355Z,24.27
2023-07-07T09:59:12.023Z,24.61
2023-07-07T10:01:46.054Z,25.23
2023-07-07T10:04:16.500Z,25.86
2023-07-07T10:06:50.941Z,26.16
2023-07-07T10:09:18.764Z,26.22
2023-07-07T10:14:17.923Z,26.05
2023-07-07T10:17:10.848Z,25.98
2023-07-07T10:19:45.867Z,25.93
2023-07-07T10:22:14.610Z,26.05
2023-07-07T10:24:45.364Z,26.35
2023-07-07T10:27:15.113Z,26.59
2023-07-07T10:29:43.971Z,26.93
2023-07-07T10:32:16.272Z,27.28
2023-07-07T10:34:48.340Z,27.59
2023-07-07T10:37:20.735Z,27.65
2023-07-07T10:39:56.648Z,27.55
2023-07-07T10:42:25.430Z,27.39
2023-07-07T10:44:58.210Z,27.21
2023-07-07T10:47:36.224Z,27.01
2023-07-07T10:50:05.955Z,26.77
2023-07-07T10:56:02.028Z,26.35
2023-07-07T10:58:38.996Z,26.21
2023-07-07T11:01:21.702Z,26.11
2023-07-07T11:04:08.088Z,26.04
2023-07-07T11:06:42.137Z,25.98
2023-07-07T11:09:27.001Z,25.92
2023-07-07T11:12:06.768Z,25.88
2023-07-07T11:14:59.810Z,25.89
2023-07-07T11:17:46.201Z,26.01
2023-07-07T11:20:41.775Z,26.40
2023-07-07T11:23:44.609Z,26.86
2023-07-07T11:26:28.116Z,27.32
2023-07-07T11:29:16.953Z,27.57
2023-07-07T11:31:51.880Z,27.72
2023-07-07T11:34:54.174Z,27.76
2023-07-07T11:37:57.145Z,27.74
2023-07-07T11:40:43.763Z,27.84
2023-07-07T11:43:43.978Z,28.17
2023-07-07T11:46:17.133Z,28.62
2023-07-07T11:48:51.443Z,28.99
2023-07-07T11:51:47.011Z,29.25
2023-07-07T11:54:22.712Z,29.25
2023-07-07T11:57:18.257Z,29.15
2023-07-07T12:00:19.571Z,29.06
2023-07-07T12:03:02.971Z,28.92
2023-07-07T12:05:33.976Z,28.73
2023-07-07T12:08:10.557Z,28.53
2023-07-07T12:10:47.908Z,28.38
2023-07-07T12:13:24.374Z,28.21
2023-07-07T12:16:00.494Z,28.03
2023-07-07T12:18:35.451Z,27.90
2023-07-07T12:21:11.482Z,27.85
2023-07-07T12:23:39.440Z,28.00
2023-07-07T12:26:25.699Z,28.35
2023-07-07T12:28:56.202Z,28.82
2023-07-07T12:31:24.677Z,29.39
2023-07-07T12:33:53.041Z,30.03
2023-07-07T12:36:21.660Z,30.64
2023-07-07T12:38:50.693Z,31.13
2023-07-07T12:41:22.427Z,31.23
2023-07-07T12:43:52.180Z,31.47
2023-07-07T12:46:23.876Z,31.78
2023-07-07T12:48:55.862Z,32.08
2023-07-07T12:51:25.283Z,32.38
2023-07-07T12:53:54.168Z,32.72
2023-07-07T12:56:24.119Z,32.98
2023-07-07T12:58:59.062Z,33.18
2023-07-07T13:01:35.355Z,33.42
2023-07-07T13:04:06.044Z,33.66
2023-07-07T13:06:38.104Z,33.91
2023-07-07T13:09:14.935Z,34.17
2023-07-07T13:11:49.029Z,34.38
2023-07-07T13:14:40.568Z,34.56
2023-07-07T13:17:13.054Z,34.60
2023-07-07T13:19:44.785Z,34.65
2023-07-07T13:22:13.365Z,34.54
2023-07-07T13:24:42.937Z,34.16
2023-07-07T13:27:20.121Z,33.70
2023-07-07T13:29:47.884Z,33.25
2023-07-07T13:32:26.449Z,32.93
2023-07-07T13:34:54.502Z,32.80
2023-07-07T13:37:22.127Z,32.90
2023-07-07T13:39:49.790Z,33.12
2023-07-07T13:42:26.279Z,33.35
2023-07-07T13:44:58.570Z,33.62
2023-07-07T13:47:27.358Z,33.90
2023-07-07T13:49:58.590Z,34.13
2023-07-07T13:52:27.989Z,34.15
2023-07-07T13:54:57.105Z,33.86
2023-07-07T13:57:35.602Z,33.56
2023-07-07T14:00:03.701Z,33.31
2023-07-07T14:02:31.508Z,33.08
2023-07-07T14:05:06.055Z,33.17
2023-07-07T14:07:37.507Z,33.43
2023-07-07T14:10:23.734Z,33.73
2023-07-07T14:12:51.464Z,34.08
2023-07-07T14:15:19.432Z,34.32
2023-07-07T14:20:20.214Z,33.99
2023-07-07T14:22:48.112Z,34.07
2023-07-07T14:25:17.535Z,34.13
2023-07-07T14:27:45.132Z,33.93
2023-07-07T14:30:24.247Z,33.76
2023-07-07T14:32:55.438Z,33.86
2023-07-07T14:35:32.184Z,34.08
2023-07-07T14:38:15.814Z,34.20
2023-07-07T14:40:45.126Z,34.13
2023-07-07T14:43:24.069Z,34.07
2023-07-07T14:45:54.541Z,34.12
2023-07-07T14:48:23.295Z,34.25
2023-07-07T14:50:51.351Z,34.42
2023-07-07T14:53:23.500Z,34.67
2023-07-07T14:55:52.756Z,34.95
2023-07-07T14:58:24.707Z,35.17
2023-07-07T15:00:53.641Z,35.36
2023-07-07T15:03:27.500Z,35.53
2023-07-07T15:06:08.294Z,35.67
2023-07-07T15:08:37.281Z,35.85
2023-07-07T15:11:07.145Z,35.92
2023-07-07T15:13:34.888Z,35.65
2023-07-07T15:16:03.743Z,35.27
2023-07-07T15:18:31.391Z,34.77
2023-07-07T15:20:59.082Z,34.26
2023-07-07T15:23:26.858Z,33.79
2023-07-07T15:25:54.475Z,33.30
2023-07-07T15:28:22.080Z,32.83
2023-07-07T15:30:49.991Z,32.41
2023-07-07T15:33:18.270Z,32.00
2023-07-07T15:35:46.012Z,31.68
2023-07-07T15:38:25.896Z,31.26
2023-07-07T15:40:53.649Z,30.89
2023-07-07T15:43:22.516Z,30.62
2023-07-07T15:45:54.619Z,30.36
2023-07-07T15:48:23.327Z,30.13
2023-07-07T15:50:51.161Z,29.99
2023-07-07T15:53:18.978Z,30.01
2023-07-07T15:55:46.609Z,30.25
2023-07-07T15:58:14.270Z,30.57
2023-07-07T16:00:43.170Z,30.82
2023-07-07T16:03:10.924Z,31.15
2023-07-07T16:05:38.788Z,31.46
2023-07-07T16:08:12.824Z,31.66
2023-07-07T16:10:40.521Z,31.74
2023-07-07T16:13:08.197Z,31.59
2023-07-07T16:15:36.074Z,31.59
2023-07-07T16:18:04.117Z,31.69
2023-07-07T16:20:31.773Z,31.84
2023-07-07T16:22:59.931Z,31.96
2023-07-07T16:25:28.204Z,32.02
2023-07-07T16:27:56.619Z,32.15
2023-07-07T16:30:33.402Z,32.25
2023-07-07T16:33:01.188Z,32.26
2023-07-07T16:35:29.142Z,32.25
2023-07-07T16:37:56.969Z,32.27
2023-07-07T16:40:31.222Z,32.33
2023-07-07T16:43:03.786Z,32.37
2023-07-07T16:45:32.202Z,32.46
2023-07-07T16:47:59.880Z,32.51
2023-07-07T16:50:28.336Z,32.57
2023-07-07T16:52:59.807Z,32.59
2023-07-07T16:55:27.728Z,32.61
2023-07-07T16:57:55.372Z,32.55
2023-07-07T17:00:24.801Z,32.50
2023-07-07T17:02:53.200Z,32.46
2023-07-07T17:05:23.189Z,32.42
2023-07-07T17:07:50.991Z,32.36
2023-07-07T17:10:38.914Z,32.31
2023-07-07T17:13:06.786Z,32.25
2023-07-07T17:15:34.551Z,32.22
2023-07-07T17:18:04.891Z,32.19
2023-07-07T17:20:34.208Z,32.13
2023-07-07T17:23:02.048Z,32.03
2023-07-07T17:25:31.006Z,31.94
2023-07-07T17:27:58.679Z,31.86
2023-07-07T17:30:32.102Z,31.77
2023-07-07T17:32:59.993Z,31.68
2023-07-07T17:35:27.820Z,31.59
2023-07-07T17:37:55.474Z,31.51
2023-07-07T17:40:37.918Z,31.44
2023-07-07T17:43:05.602Z,31.35
2023-07-07T17:45:33.526Z,31.26
2023-07-07T17:48:01.303Z,31.18
2023-07-07T17:50:45.140Z,31.11
2023-07-07T17:53:12.759Z,31.02
2023-07-07T17:55:40.885Z,30.92
2023-07-07T17:58:12.454Z,30.79
2023-07-07T18:00:41.294Z,30.64
2023-07-07T18:03:09.246Z,30.45
2023-07-07T18:05:37.028Z,30.23
2023-07-07T18:08:09.162Z,30.04
2023-07-07T18:10:36.819Z,29.84
2023-07-07T18:13:04.478Z,29.64
2023-07-07T18:15:32.140Z,29.45
2023-07-07T18:18:22.837Z,29.27
2023-07-07T18:21:23.296Z,29.06
2023-07-07T18:23:35.802Z,28.87
2023-07-07T18:26:03.556Z,28.68
2023-07-07T18:28:31.264Z,28.47
2023-07-07T18:30:59.467Z,28.23
2023-07-07T18:33:27.703Z,27.97
2023-07-07T18:35:55.469Z,27.69
2023-07-07T18:38:23.290Z,27.41
2023-07-07T18:40:51.284Z,27.13
2023-07-07T18:43:19.897Z,26.82
2023-07-07T18:45:47.618Z,26.48
2023-07-07T18:48:15.839Z,26.17
2023-07-07T18:50:43.824Z,25.86
2023-07-07T18:53:11.745Z,25.54
2023-07-07T18:55:46.286Z,25.25
2023-07-07T18:58:13.941Z,24.96
2023-07-07T19:00:42.662Z,24.71
2023-07-07T19:03:13.025Z,24.43
2023-07-07T19:05:41.028Z,24.18
2023-07-07T19:08:12.567Z,23.93
2023-07-07T19:10:41.464Z,23.68
2023-07-07T19:13:22.439Z,23.44
2023-07-07T19:15:52.833Z,23.22
2023-07-07T19:18:29.701Z,23.01
2023-07-07T19:20:57.631Z,22.80
2023-07-07T19:23:25.273Z,22.61
2023-07-07T19:25:52.936Z,22.44
2023-07-07T19:28:31.420Z,22.26
2023-07-07T19:30:59.350Z,22.10
2023-07-07T19:33:27.065Z,21.93
2023-07-07T19:35:58.134Z,21.76
2023-07-07T19:38:26.937Z,21.58
2023-07-07T19:40:59.335Z,21.42
2023-07-07T19:43:26.995Z,21.25
2023-07-07T19:45:58.363Z,21.09
2023-07-07T19:48:26.442Z,20.92
2023-07-07T19:50:56.505Z,20.77
2023-07-07T19:53:24.182Z,20.62
2023-07-07T19:55:56.536Z,20.48
2023-07-07T19:58:27.445Z,20.35
2023-07-07T20:00:55.063Z,20.23
2023-07-07T20:03:23.825Z,20.12
2023-07-07T20:05:51.583Z,20.00
2023-07-07T20:08:19.205Z,19.87
2023-07-07T20:10:46.856Z,19.76
2023-07-07T20:13:14.763Z,19.64
2023-07-07T20:15:42.668Z,19.53
2023-07-07T20:18:12.489Z,19.43
2023-07-07T20:20:40.146Z,19.33
2023-07-07T20:23:13.304Z,19.24
2023-07-07T20:25:41.272Z,19.14
2023-07-07T20:28:18.051Z,19.05
2023-07-07T20:30:45.837Z,18.94
2023-07-07T20:33:14.073Z,18.84
2023-07-07T20:35:41.803Z,18.75
2023-07-07T20:38:11.387Z,18.66
2023-07-07T20:40:40.298Z,18.57
2023-07-07T20:43:09.106Z,18.49
2023-07-07T20:45:37.481Z,18.40
2023-07-07T20:48:11.305Z,18.30
2023-07-07T20:50:39.122Z,18.22
2023-07-07T20:53:08.739Z,18.14
2023-07-07T20:55:36.412Z,18.05
2023-07-07T20:58:09.585Z,17.98
2023-07-07T21:00:37.864Z,17.91
2023-07-07T21:03:05.629Z,17.81
2023-07-07T21:05:33.715Z,17.73
2023-07-07T21:08:01.322Z,17.66
2023-07-07T21:10:33.715Z,17.58
2023-07-07T21:13:01.328Z,17.50
2023-07-07T21:15:29.005Z,17.44
2023-07-07T21:17:56.665Z,17.40
2023-07-07T21:20:35.448Z,17.38
2023-07-07T21:23:04.496Z,17.37
2023-07-07T21:25:33.036Z,17.33
2023-07-07T21:28:01.191Z,17.26
2023-07-07T21:30:29.002Z,17.21
2023-07-07T21:32:56.721Z,17.15
2023-07-07T21:35:24.700Z,17.08
2023-07-07T21:37:52.383Z,17.02
2023-07-07T21:40:21.782Z,16.95
2023-07-07T21:42:49.747Z,16.88
2023-07-07T21:45:20.118Z,16.78
2023-07-07T21:47:55.251Z,16.71
2023-07-07T21:50:24.374Z,16.64
2023-07-07T21:52:52.861Z,16.57
2023-07-07T21:55:21.198Z,16.49
2023-07-07T21:57:49.991Z,16.42
2023-07-07T22:00:26.434Z,16.35
2023-07-07T22:02:57.780Z,16.27
2023-07-07T22:05:27.512Z,16.18
2023-07-07T22:07:55.425Z,16.14
2023-07-07T22:10:42.052Z,16.12
2023-07-07T22:13:09.895Z,16.10
2023-07-07T22:15:38.892Z,16.08
2023-07-07T22:18:17.207Z,16.05
2023-07-07T22:21:05.229Z,15.99
2023-07-07T22:23:33.353Z,15.93
2023-07-07T22:26:01.291Z,15.87
2023-07-07T22:28:30.881Z,15.81
2023-07-07T22:30:59.661Z,15.73
2023-07-07T22:33:28.354Z,15.67
2023-07-07T22:35:56.331Z,15.61
2023-07-07T22:38:27.639Z,15.54
2023-07-07T22:40:56.952Z,15.47
2023-07-07T22:43:25.076Z,15.40
2023-07-07T22:46:00.105Z,15.33
2023-07-07T22:48:27.739Z,15.28
2023-07-07T22:50:55.342Z,15.26
2023-07-07T22:53:22.959Z,15.24
2023-07-07T22:55:50.587Z,15.22
2023-07-07T22:58:19.854Z,15.21
2023-07-07T23:00:47.850Z,15.17
2023-07-07T23:03:15.855Z,15.13
2023-07-07T23:05:44.366Z,15.09
2023-07-07T23:08:30.254Z,15.05
2023-07-07T23:10:58.032Z,15.00
2023-07-07T23:13:26.473Z,14.94
2023-07-07T23:15:54.109Z,14.89
2023-07-07T23:18:23.941Z,14.82
2023-07-07T23:20:51.550Z,14.74
2023-07-07T23:23:22.747Z,14.69
2023-07-07T23:25:58.839Z,14.66
2023-07-07T23:28:29.263Z,14.66
2023-07-07T23:31:05.349Z,14.64
2023-07-07T23:33:34.665Z,14.60
2023-07-07T23:36:03.935Z,14.57
2023-07-07T23:38:31.586Z,14.53
2023-07-07T23:40:59.787Z,14.48
2023-07-07T23:43:27.607Z,14.43
2023-07-07T23:45:55.207Z,14.37
2023-07-07T23:48:22.950Z,14.32
2023-07-07T23:50:53.458Z,14.27
2023-07-07T23:53:21.872Z,14.21
2023-07-07T23:55:50.142Z,14.16
2023-07-07T23:58:25.224Z,14.16
